Startpagina
METAR-TAF:

METAR-TAF

Vliegvelden :

Koeweit, Koeweit

breedte: 29-13N, lengte: 047-59E, hoogte: 55 m

Actueel weer

Dit bericht is 51 minuten geleden gemaakt, om 08:00 UTC
Wind 10 kt uit het noorden
Temperatuur 45°C
Vochtigheid 10%
Druk 998 hPa
Zicht: 8000 m
Onbewolkt

METAR: OKBK 280800Z 35010KT 8000 SKC 45/07 Q0998 NOSIG

Tijdstip: 11:51 (08:51 UTC)

Verwachting

Dit bericht is 4 uur en het 6 minuten geleden gemaakt, om 04:45 UTC
Verwachting geldig van 28 om 06 UTC tot 29 om 12 UTC
Wind 6 kt uit het noordnoordwesten met uitschieters tot 16 kt
Zicht: 6000 m
Onbewolkt
Tijdelijke
van 28 om 09 UTC tot 28 om 18 UTC
Wind 3 kt uit variabele richting
Zicht: 4000 m
Heiigheid

TAF: OKBK 280445Z 2806/2912 33006G16KT 6000 SKC TEMPO 2809/2818 VRB03KT 4000 HZ

Waarnemingen en weersverwachtingen van meer dan 4000 vliegvelden (METAR en TAF).

De beschikbare stations zijn de gele en rode punten op de kaart.

Ga met uw muis naar het station om de naam te zien.

Klik dan om waarnemingen en weersverwachtingen te zien.

kaart wijzigen: klik op de groene knoppen met een zwart kruis om in te zoomen, op de groene knop met een streepje om uit te zoomen of op de groene pijlen voor aangrenzende kaarten.


METAR-TAF: